createdAt,value
2017-05-05T00:02:02.507Z,22.86
2017-05-05T00:04:28.878Z,22.48
2017-05-05T00:06:55.368Z,22.78
2017-05-05T00:09:21.743Z,24.20
2017-05-05T00:11:48.076Z,24.34
2017-05-05T00:14:14.973Z,25.40
2017-05-05T00:16:46.465Z,24.72
2017-05-05T00:19:17.330Z,25.02
2017-05-05T00:21:43.787Z,23.44
2017-05-05T00:24:10.148Z,27.08
2017-05-05T00:26:36.510Z,24.72
2017-05-05T00:29:02.830Z,28.52
2017-05-05T00:31:29.562Z,26.68
2017-05-05T00:33:55.943Z,28.58
2017-05-05T00:36:22.266Z,27.32
2017-05-05T00:38:49.277Z,28.64
2017-05-05T00:41:15.987Z,29.40
2017-05-05T00:43:42.311Z,30.28
2017-05-05T00:46:08.602Z,31.02
2017-05-05T00:48:36.819Z,32.04
2017-05-05T00:51:03.339Z,32.30
2017-05-05T00:53:29.652Z,30.74
2017-05-05T00:55:55.966Z,33.02
2017-05-05T00:58:22.286Z,30.54
2017-05-05T01:00:48.609Z,29.92
2017-05-05T01:03:15.008Z,30.84
2017-05-05T01:05:41.302Z,32.32
2017-05-05T01:08:07.653Z,30.26
2017-05-05T01:10:33.973Z,28.98
2017-05-05T01:13:00.313Z,30.32
2017-05-05T01:15:26.792Z,31.80
2017-05-05T01:17:53.111Z,31.62
2017-05-05T01:20:19.434Z,31.12
2017-05-05T01:22:46.233Z,32.56
2017-05-05T01:25:12.617Z,34.52
2017-05-05T01:27:38.951Z,30.62
2017-05-05T01:30:05.277Z,31.86
2017-05-05T01:32:31.625Z,35.58
2017-05-05T01:34:57.956Z,33.50
2017-05-05T01:37:24.293Z,34.28
2017-05-05T01:39:50.606Z,33.48
2017-05-05T01:42:16.944Z,32.68
2017-05-05T01:44:43.254Z,32.14
2017-05-05T01:47:09.601Z,32.48
2017-05-05T01:49:35.908Z,31.26
2017-05-05T01:52:02.201Z,31.40
2017-05-05T01:54:28.600Z,33.44
2017-05-05T01:56:54.907Z,33.94
2017-05-05T01:59:21.285Z,32.48
2017-05-05T02:01:47.598Z,33.04
2017-05-05T02:04:13.946Z,35.34
2017-05-05T02:06:40.268Z,35.28
2017-05-05T02:09:06.607Z,35.58
2017-05-05T02:11:32.940Z,34.70
2017-05-05T02:13:59.252Z,34.90
2017-05-05T02:16:25.572Z,36.84
2017-05-05T02:18:51.921Z,35.52
2017-05-05T02:21:18.240Z,36.02
2017-05-05T02:23:44.559Z,35.72
2017-05-05T02:26:10.897Z,35.18
2017-05-05T02:28:37.230Z,32.74
2017-05-05T02:31:03.569Z,32.86
2017-05-05T02:33:29.907Z,32.20
2017-05-05T02:35:56.235Z,31.44
2017-05-05T02:38:22.592Z,31.50
2017-05-05T02:40:48.950Z,33.38
2017-05-05T02:43:15.284Z,33.26
2017-05-05T02:45:41.613Z,32.88
2017-05-05T02:48:07.951Z,30.48
2017-05-05T02:50:34.489Z,32.32
2017-05-05T02:53:00.812Z,33.10
2017-05-05T02:55:27.153Z,33.42
2017-05-05T02:57:53.509Z,36.36
2017-05-05T03:00:20.279Z,36.34
2017-05-05T03:02:46.599Z,33.80
2017-05-05T03:05:12.915Z,34.38
2017-05-05T03:07:39.217Z,36.06
2017-05-05T03:10:05.695Z,33.56
2017-05-05T03:12:32.051Z,34.74
2017-05-05T03:14:58.388Z,32.60
2017-05-05T03:17:24.711Z,33.30
2017-05-05T03:19:51.190Z,35.86
2017-05-05T03:22:17.511Z,36.70
2017-05-05T03:24:43.848Z,35.78
2017-05-05T03:27:10.187Z,34.06
2017-05-05T03:29:36.473Z,36.66
2017-05-05T03:32:02.785Z,37.46
2017-05-05T03:34:29.104Z,36.08
2017-05-05T03:36:55.428Z,35.64
2017-05-05T03:39:21.729Z,36.36
2017-05-05T03:41:48.034Z,38.32
2017-05-05T03:44:14.658Z,33.86
2017-05-05T03:46:41.100Z,32.78
2017-05-05T03:49:07.449Z,34.04
2017-05-05T03:51:33.757Z,38.82
2017-05-05T03:54:00.081Z,33.62
2017-05-05T03:56:26.525Z,34.08
2017-05-05T03:58:52.884Z,34.20
2017-05-05T04:01:19.232Z,33.60
2017-05-05T04:03:45.559Z,30.66
2017-05-05T04:06:11.942Z,34.42
2017-05-05T04:08:38.244Z,35.14
2017-05-05T04:11:05.381Z,35.38
2017-05-05T04:13:31.867Z,34.26
2017-05-05T04:15:58.678Z,37.10
2017-05-05T04:18:25.029Z,35.90
2017-05-05T04:20:51.398Z,36.84
2017-05-05T04:23:17.726Z,37.54
2017-05-05T04:25:44.061Z,36.20
2017-05-05T04:28:10.405Z,36.00
2017-05-05T04:30:36.736Z,37.40
2017-05-05T04:33:03.073Z,39.20
2017-05-05T04:35:29.429Z,38.34
2017-05-05T04:37:55.793Z,37.58
2017-05-05T04:40:22.161Z,36.92
2017-05-05T04:42:48.524Z,38.48
2017-05-05T04:45:14.889Z,37.58
2017-05-05T04:47:41.291Z,37.78
2017-05-05T04:50:07.776Z,37.84
2017-05-05T04:52:34.101Z,40.08
2017-05-05T04:55:00.441Z,36.86
2017-05-05T04:57:26.768Z,36.98
2017-05-05T04:59:53.232Z,34.90
2017-05-05T05:02:19.596Z,34.22
2017-05-05T05:04:45.949Z,35.30
2017-05-05T05:07:12.275Z,35.98
2017-05-05T05:09:38.688Z,33.92
2017-05-05T05:12:05.009Z,34.54
2017-05-05T05:14:31.348Z,34.98
2017-05-05T05:16:57.672Z,35.50
2017-05-05T05:19:24.019Z,30.56
2017-05-05T05:21:50.369Z,29.80
2017-05-05T05:24:16.721Z,32.14
2017-05-05T05:26:43.055Z,30.60
2017-05-05T05:29:09.424Z,30.84
2017-05-05T05:31:35.779Z,28.46
2017-05-05T05:34:02.152Z,29.06
2017-05-05T05:36:28.485Z,27.74
2017-05-05T05:38:54.943Z,28.08
2017-05-05T05:41:21.273Z,26.74
2017-05-05T05:43:47.603Z,26.12
2017-05-05T05:46:13.990Z,28.32
2017-05-05T05:48:40.337Z,23.88
2017-05-05T05:51:06.675Z,25.44
2017-05-05T05:53:33.002Z,25.18
2017-05-05T05:55:59.349Z,28.22
2017-05-05T05:58:25.670Z,28.00
2017-05-05T06:00:52.025Z,27.88
2017-05-05T06:03:18.384Z,29.28
2017-05-05T06:05:44.699Z,27.52
2017-05-05T06:08:11.025Z,26.60
2017-05-05T06:10:37.818Z,27.78
2017-05-05T06:13:04.178Z,27.34
2017-05-05T06:15:30.675Z,26.10
2017-05-05T06:17:57.020Z,28.28
2017-05-05T06:20:23.344Z,28.82
2017-05-05T06:22:49.669Z,26.64
2017-05-05T06:25:16.042Z,26.94
2017-05-05T06:27:42.375Z,25.18
2017-05-05T06:30:08.716Z,23.84
2017-05-05T06:32:35.065Z,25.34
2017-05-05T06:35:01.553Z,25.44
2017-05-05T06:37:27.877Z,23.08
2017-05-05T06:39:54.197Z,24.00
2017-05-05T06:42:20.525Z,23.96
2017-05-05T06:44:47.031Z,24.50
2017-05-05T06:47:13.338Z,24.78
2017-05-05T06:49:39.678Z,26.04
2017-05-05T06:52:06.029Z,22.40
2017-05-05T06:54:32.530Z,22.62
2017-05-05T06:56:58.880Z,25.84
2017-05-05T06:59:25.201Z,24.18
2017-05-05T07:01:51.559Z,23.68
2017-05-05T07:04:17.875Z,25.08
2017-05-05T07:06:44.205Z,22.24
2017-05-05T07:09:10.547Z,22.52
2017-05-05T07:11:36.880Z,25.78
2017-05-05T07:14:03.240Z,24.06
2017-05-05T07:16:29.560Z,22.38
2017-05-05T07:18:55.904Z,21.38
2017-05-05T07:21:22.245Z,20.98
2017-05-05T07:23:48.569Z,19.42
2017-05-05T07:26:14.903Z,20.52
2017-05-05T07:28:41.278Z,22.70
2017-05-05T07:31:07.628Z,18.82
2017-05-05T07:33:33.950Z,20.36
2017-05-05T07:36:00.328Z,19.12
2017-05-05T07:38:26.659Z,18.94
2017-05-05T07:40:53.087Z,18.08
2017-05-05T07:43:19.481Z,21.16
2017-05-05T07:45:45.839Z,19.76
2017-05-05T07:48:12.192Z,19.60
2017-05-05T07:50:38.531Z,24.28
2017-05-05T07:53:04.904Z,19.36
2017-05-05T07:55:31.244Z,17.66
2017-05-05T07:57:57.576Z,21.36
2017-05-05T08:00:24.114Z,31.04
2017-05-05T08:02:50.455Z,26.44
2017-05-05T08:05:16.829Z,21.94
2017-05-05T08:07:43.142Z,20.20
2017-05-05T08:10:09.539Z,19.82
2017-05-05T08:12:35.911Z,19.00
2017-05-05T08:15:02.276Z,17.26
2017-05-05T08:17:28.624Z,16.46
2017-05-05T08:19:55.137Z,20.02
2017-05-05T08:22:21.454Z,18.10
2017-05-05T08:24:47.849Z,19.40
2017-05-05T08:27:14.167Z,18.54
2017-05-05T08:29:40.504Z,18.72
2017-05-05T08:32:06.822Z,18.98
2017-05-05T08:34:33.669Z,18.36
2017-05-05T08:37:00.102Z,16.98
2017-05-05T08:39:26.463Z,16.78
2017-05-05T08:41:52.805Z,15.64
2017-05-05T08:44:19.348Z,14.20
2017-05-05T08:46:45.777Z,16.16
2017-05-05T08:49:12.146Z,16.88
2017-05-05T08:51:38.488Z,17.18
2017-05-05T08:54:04.822Z,16.94
2017-05-05T08:56:31.187Z,14.66
2017-05-05T08:58:57.514Z,15.22
2017-05-05T09:01:23.891Z,15.56
2017-05-05T09:03:50.224Z,15.32
2017-05-05T09:06:16.541Z,14.54
2017-05-05T09:08:42.882Z,17.80
2017-05-05T09:11:09.239Z,15.78
2017-05-05T09:13:35.597Z,15.44
2017-05-05T09:16:01.922Z,15.98
2017-05-05T09:18:28.278Z,15.18
2017-05-05T09:20:54.598Z,15.68
2017-05-05T09:23:20.944Z,16.04
2017-05-05T09:25:47.263Z,14.48
2017-05-05T09:28:13.591Z,15.14
2017-05-05T09:30:39.927Z,16.02
2017-05-05T09:33:06.269Z,17.84
2017-05-05T09:35:32.586Z,17.00
2017-05-05T09:37:58.906Z,18.48
2017-05-05T09:40:25.278Z,18.14
2017-05-05T09:42:51.619Z,20.14
2017-05-05T09:45:17.976Z,20.96
2017-05-05T09:47:44.316Z,23.06
2017-05-05T09:50:10.670Z,21.40
2017-05-05T09:52:37.024Z,19.60
2017-05-05T09:55:03.366Z,23.46
2017-05-05T09:57:29.721Z,21.40
2017-05-05T09:59:56.067Z,23.02
2017-05-05T10:02:22.387Z,23.22
2017-05-05T10:04:48.718Z,23.26
2017-05-05T10:07:15.033Z,25.20
2017-05-05T10:09:41.380Z,24.20
2017-05-05T10:12:07.712Z,27.26
2017-05-05T10:14:34.176Z,26.10
2017-05-05T10:17:00.530Z,26.96
2017-05-05T10:19:26.854Z,25.66
2017-05-05T10:21:53.173Z,25.46
2017-05-05T10:24:19.593Z,26.42
2017-05-05T10:26:45.933Z,26.72
2017-05-05T10:29:12.283Z,27.70
2017-05-05T10:31:38.641Z,27.86
2017-05-05T10:34:04.996Z,24.72
2017-05-05T10:36:33.727Z,26.96
2017-05-05T10:39:00.061Z,27.42
2017-05-05T10:41:26.409Z,26.10
2017-05-05T10:43:52.757Z,26.08
2017-05-05T10:46:19.114Z,26.90
2017-05-05T10:48:45.452Z,28.86
2017-05-05T10:51:11.814Z,27.28
2017-05-05T10:53:38.173Z,27.62
2017-05-05T10:56:04.499Z,27.10
2017-05-05T10:58:30.850Z,28.08
2017-05-05T11:00:57.201Z,27.88
2017-05-05T11:03:23.658Z,28.76
2017-05-05T11:05:50.000Z,28.64
2017-05-05T11:08:16.374Z,31.64
2017-05-05T11:10:42.727Z,33.32
2017-05-05T11:13:09.139Z,34.26
2017-05-05T11:15:35.500Z,32.62
2017-05-05T11:18:01.852Z,33.04
2017-05-05T11:20:28.235Z,32.18
2017-05-05T11:22:54.674Z,35.46
2017-05-05T11:25:21.051Z,34.66
2017-05-05T11:27:47.392Z,37.96
2017-05-05T11:30:13.735Z,36.80
2017-05-05T11:32:40.170Z,36.20
2017-05-05T11:35:06.516Z,36.02
2017-05-05T11:37:32.865Z,37.94
2017-05-05T11:39:59.216Z,32.90
2017-05-05T11:42:25.656Z,36.12
2017-05-05T11:44:52.014Z,34.44
2017-05-05T11:47:18.370Z,35.12
2017-05-05T11:49:44.739Z,36.38
2017-05-05T11:52:11.083Z,34.62
2017-05-05T11:54:37.423Z,37.62
2017-05-05T11:57:03.755Z,37.34
2017-05-05T11:59:30.132Z,36.54
2017-05-05T12:01:56.466Z,34.72
2017-05-05T12:04:22.803Z,35.38
2017-05-05T12:06:49.154Z,35.30
2017-05-05T12:09:15.474Z,36.36
2017-05-05T12:11:41.817Z,35.22
2017-05-05T12:14:08.221Z,37.30
2017-05-05T12:16:35.098Z,36.48
2017-05-05T12:19:01.559Z,37.40
2017-05-05T12:21:27.901Z,35.96
2017-05-05T12:23:54.265Z,37.40
2017-05-05T12:26:20.600Z,38.24
2017-05-05T12:28:46.996Z,38.94
2017-05-05T12:31:13.358Z,35.34
2017-05-05T12:33:39.704Z,37.20
2017-05-05T12:36:06.046Z,34.18
2017-05-05T12:38:32.451Z,33.60
2017-05-05T12:40:58.789Z,32.78
2017-05-05T12:43:25.142Z,27.96
2017-05-05T12:45:51.482Z,29.90
2017-05-05T12:48:17.807Z,30.62
2017-05-05T12:50:44.143Z,32.50
2017-05-05T12:53:10.479Z,32.06
2017-05-05T12:55:36.831Z,33.50
2017-05-05T12:58:03.167Z,28.46
2017-05-05T13:00:29.520Z,31.40
2017-05-05T13:02:55.874Z,30.76
2017-05-05T13:05:22.211Z,31.18
2017-05-05T13:07:48.590Z,30.54
2017-05-05T13:10:15.001Z,29.42
2017-05-05T13:12:41.360Z,27.90
2017-05-05T13:15:07.716Z,27.10
2017-05-05T13:17:34.078Z,27.44
2017-05-05T13:20:00.433Z,26.00
2017-05-05T13:22:26.778Z,27.50
2017-05-05T13:24:53.695Z,27.68
2017-05-05T13:27:20.036Z,27.96
2017-05-05T13:29:46.364Z,28.90
2017-05-05T13:32:12.682Z,28.46
2017-05-05T13:34:45.176Z,26.82
2017-05-05T13:37:11.744Z,29.62
2017-05-05T13:39:38.100Z,36.36
2017-05-05T13:42:04.620Z,33.46
2017-05-05T13:44:30.972Z,35.04
2017-05-05T13:46:57.328Z,34.62
2017-05-05T13:49:23.686Z,34.58
2017-05-05T13:51:50.283Z,33.84
2017-05-05T13:54:16.672Z,29.52
2017-05-05T13:56:42.972Z,29.76
2017-05-05T13:59:09.339Z,27.90
2017-05-05T14:01:35.713Z,30.12
2017-05-05T14:04:05.000Z,28.18
2017-05-05T14:06:31.600Z,27.66
2017-05-05T14:09:01.005Z,28.50
2017-05-05T14:11:28.059Z,28.22
2017-05-05T14:13:54.395Z,26.02
2017-05-05T14:16:20.737Z,25.78
2017-05-05T14:18:47.289Z,26.60
2017-05-05T14:21:13.844Z,26.84
2017-05-05T14:23:40.247Z,25.52
2017-05-05T14:26:06.816Z,28.34
2017-05-05T14:28:36.593Z,23.50
2017-05-05T14:31:03.059Z,24.44
2017-05-05T14:33:29.392Z,25.92
2017-05-05T14:35:55.778Z,25.00
2017-05-05T14:38:23.255Z,25.60
2017-05-05T14:40:49.587Z,24.16
2017-05-05T14:43:15.937Z,24.58
2017-05-05T14:45:42.300Z,23.74
2017-05-05T14:48:08.590Z,24.82
2017-05-05T14:50:34.930Z,25.62
2017-05-05T14:53:01.282Z,26.54
2017-05-05T14:55:27.852Z,26.72
2017-05-05T14:57:55.705Z,26.06
2017-05-05T15:00:22.997Z,24.68
2017-05-05T15:02:50.285Z,22.42
2017-05-05T15:05:16.761Z,24.16
2017-05-05T15:07:43.306Z,23.06
2017-05-05T15:10:09.933Z,19.78
2017-05-05T15:12:37.252Z,19.84
2017-05-05T15:15:03.687Z,18.98
2017-05-05T15:17:30.527Z,18.44
2017-05-05T15:19:57.605Z,19.00
2017-05-05T15:22:24.120Z,19.50
2017-05-05T15:24:50.468Z,19.02
2017-05-05T15:27:17.688Z,17.92
2017-05-05T15:29:44.418Z,17.20
2017-05-05T15:32:10.938Z,17.94
2017-05-05T15:34:39.206Z,18.68
2017-05-05T15:37:06.415Z,17.52
2017-05-05T15:39:33.857Z,16.20
2017-05-05T15:42:00.878Z,15.32
2017-05-05T15:44:27.563Z,15.42
2017-05-05T15:46:54.575Z,17.08
2017-05-05T15:49:20.909Z,17.98
2017-05-05T15:51:47.260Z,15.94
2017-05-05T15:54:13.737Z,16.30
2017-05-05T15:56:40.156Z,17.14
2017-05-05T15:59:06.533Z,16.20
2017-05-05T16:01:32.885Z,15.34
2017-05-05T16:03:59.354Z,16.50
2017-05-05T16:06:25.689Z,15.36
2017-05-05T16:08:52.214Z,15.84
2017-05-05T16:11:18.599Z,14.16
2017-05-05T16:13:44.939Z,14.50
2017-05-05T16:16:11.311Z,15.04
2017-05-05T16:18:37.622Z,16.58
2017-05-05T16:21:03.937Z,15.58
2017-05-05T16:23:30.249Z,15.14
2017-05-05T16:25:57.480Z,14.16
2017-05-05T16:28:23.834Z,14.96
2017-05-05T16:30:50.192Z,14.46
2017-05-05T16:33:16.807Z,13.66
2017-05-05T16:35:43.135Z,14.88
2017-05-05T16:38:09.917Z,14.16
2017-05-05T16:40:37.181Z,14.64
2017-05-05T16:43:03.728Z,14.22
2017-05-05T16:45:31.066Z,13.98
2017-05-05T16:47:58.134Z,14.36
2017-05-05T16:50:24.862Z,13.62
2017-05-05T16:52:51.882Z,14.56
2017-05-05T16:55:18.506Z,13.68
2017-05-05T16:57:45.730Z,12.70
2017-05-05T17:00:12.238Z,13.92
2017-05-05T17:02:39.351Z,13.28
2017-05-05T17:05:06.240Z,13.80
2017-05-05T17:07:33.265Z,15.02
2017-05-05T17:09:59.570Z,14.90
2017-05-05T17:12:25.914Z,14.50
2017-05-05T17:14:52.288Z,14.20
2017-05-05T17:17:18.659Z,13.44
2017-05-05T17:19:45.135Z,13.72
2017-05-05T17:22:11.495Z,12.98
2017-05-05T17:24:37.835Z,13.66
2017-05-05T17:27:04.194Z,14.30
2017-05-05T17:29:30.700Z,14.20
2017-05-05T17:31:57.063Z,14.18
2017-05-05T17:34:23.456Z,14.42
2017-05-05T17:36:49.841Z,13.32
2017-05-05T17:39:16.348Z,15.02
2017-05-05T17:41:42.719Z,13.48
2017-05-05T17:44:09.093Z,14.26
2017-05-05T17:46:35.414Z,14.44
2017-05-05T17:49:01.800Z,14.10
2017-05-05T17:51:28.153Z,14.00
2017-05-05T17:53:54.502Z,13.74
2017-05-05T17:56:20.838Z,13.92
2017-05-05T17:58:47.376Z,13.72
2017-05-05T18:01:13.708Z,14.60
2017-05-05T18:03:40.056Z,14.32
2017-05-05T18:06:06.414Z,15.10
2017-05-05T18:08:32.993Z,13.72
2017-05-05T18:10:59.377Z,13.72
2017-05-05T18:13:25.753Z,13.84
2017-05-05T18:15:58.391Z,14.50
2017-05-05T18:18:24.798Z,15.34
2017-05-05T18:20:52.870Z,15.58
2017-05-05T18:23:21.758Z,15.62
2017-05-05T18:25:49.458Z,15.12
2017-05-05T18:28:17.415Z,15.22
2017-05-05T18:30:45.533Z,15.24
2017-05-05T18:33:13.406Z,15.28
2017-05-05T18:35:41.426Z,17.18
2017-05-05T18:38:09.305Z,16.96
2017-05-05T18:40:37.066Z,17.02
2017-05-05T18:43:03.476Z,16.32
2017-05-05T18:45:29.871Z,16.28
2017-05-05T18:47:56.257Z,16.12
2017-05-05T18:50:22.598Z,15.54
2017-05-05T18:52:49.811Z,16.32
2017-05-05T18:55:16.181Z,16.74
2017-05-05T18:57:42.587Z,18.24
2017-05-05T19:00:08.994Z,16.08
2017-05-05T19:02:35.406Z,18.06
2017-05-05T19:05:01.775Z,17.06
2017-05-05T19:07:28.904Z,17.08
2017-05-05T19:09:56.136Z,18.08
2017-05-05T19:12:23.175Z,17.00
2017-05-05T19:14:49.836Z,18.24
2017-05-05T19:17:16.253Z,18.08
2017-05-05T19:19:42.676Z,16.56
2017-05-05T19:22:09.281Z,17.46
2017-05-05T19:24:36.220Z,17.60
2017-05-05T19:27:02.623Z,18.76
2017-05-05T19:29:28.969Z,17.84
2017-05-05T19:31:55.577Z,18.10
2017-05-05T19:34:22.199Z,17.92
2017-05-05T19:36:48.635Z,16.82
2017-05-05T19:39:15.599Z,19.06
2017-05-05T19:41:42.619Z,18.30
2017-05-05T19:44:09.065Z,19.32
2017-05-05T19:46:36.613Z,19.10
2017-05-05T19:49:03.109Z,18.48
2017-05-05T19:51:31.342Z,19.12
2017-05-05T19:53:59.639Z,19.50
2017-05-05T19:56:27.948Z,19.80
2017-05-05T19:58:55.145Z,20.70
2017-05-05T20:01:22.765Z,19.04
2017-05-05T20:03:49.426Z,20.04
2017-05-05T20:06:16.684Z,20.06
2017-05-05T20:08:43.328Z,21.38
2017-05-05T20:11:09.788Z,21.82
2017-05-05T20:13:37.021Z,24.34
2017-05-05T20:16:03.403Z,21.70
2017-05-05T20:18:30.685Z,20.76
2017-05-05T20:20:59.344Z,23.04
2017-05-05T20:23:27.357Z,21.22
2017-05-05T20:25:55.079Z,19.24
2017-05-05T20:28:22.160Z,19.24
2017-05-05T20:30:49.853Z,21.44
2017-05-05T20:33:16.386Z,20.44
2017-05-05T20:35:42.800Z,22.18
2017-05-05T20:38:09.395Z,20.54
2017-05-05T20:40:36.516Z,19.66
2017-05-05T20:43:03.341Z,20.18
2017-05-05T20:45:33.619Z,22.76
2017-05-05T20:48:01.634Z,23.82
2017-05-05T20:50:29.397Z,25.88
2017-05-05T20:52:57.103Z,23.40
2017-05-05T20:55:24.297Z,24.68
2017-05-05T20:57:51.420Z,25.08
2017-05-05T21:00:18.150Z,25.38
2017-05-05T21:02:45.737Z,25.88
2017-05-05T21:05:12.466Z,26.56
2017-05-05T21:07:39.038Z,30.32
2017-05-05T21:10:05.881Z,31.14
2017-05-05T21:12:32.251Z,30.20
2017-05-05T21:14:58.825Z,26.66
2017-05-05T21:17:25.832Z,28.72
2017-05-05T21:19:52.218Z,28.52
2017-05-05T21:22:18.821Z,26.92
2017-05-05T21:24:45.220Z,27.38
2017-05-05T21:27:11.582Z,29.20
2017-05-05T21:29:38.293Z,28.18
2017-05-05T21:32:04.653Z,26.28
2017-05-05T21:34:31.113Z,27.06
2017-05-05T21:36:57.474Z,28.26
2017-05-05T21:39:24.023Z,27.40
2017-05-05T21:41:50.402Z,28.32
2017-05-05T21:44:16.746Z,26.20
2017-05-05T21:46:43.502Z,25.30
2017-05-05T21:49:09.886Z,27.42
2017-05-05T21:51:36.236Z,29.20
2017-05-05T21:54:02.703Z,29.06
2017-05-05T21:56:29.214Z,25.52
2017-05-05T21:58:55.592Z,26.72
2017-05-05T22:01:21.936Z,27.32
2017-05-05T22:03:48.309Z,27.28
2017-05-05T22:06:14.810Z,28.72
2017-05-05T22:08:41.164Z,25.64
2017-05-05T22:11:07.616Z,27.74
2017-05-05T22:13:33.950Z,26.54
2017-05-05T22:16:00.481Z,27.48
2017-05-05T22:18:26.834Z,27.50
2017-05-05T22:20:53.150Z,26.82
2017-05-05T22:23:19.543Z,27.54
2017-05-05T22:25:45.916Z,25.38
2017-05-05T22:28:12.301Z,27.66
2017-05-05T22:30:38.672Z,25.84
2017-05-05T22:33:05.111Z,25.48
2017-05-05T22:35:31.458Z,25.78
2017-05-05T22:38:01.307Z,24.22
2017-05-05T22:40:31.731Z,25.88
2017-05-05T22:43:01.823Z,27.36
2017-05-05T22:45:31.780Z,27.94
2017-05-05T22:48:01.774Z,26.42
2017-05-05T22:50:31.953Z,27.38
2017-05-05T22:53:01.880Z,25.78
2017-05-05T22:55:31.820Z,25.64
2017-05-05T22:58:03.349Z,27.10
2017-05-05T23:00:33.369Z,27.24
2017-05-05T23:03:03.268Z,28.96
2017-05-05T23:05:33.098Z,28.48
2017-05-05T23:08:03.101Z,29.16
2017-05-05T23:10:32.842Z,25.48
2017-05-05T23:13:02.357Z,30.90
2017-05-05T23:15:31.879Z,27.26
2017-05-05T23:18:01.791Z,28.58
2017-05-05T23:20:31.911Z,29.74
2017-05-05T23:23:01.990Z,28.32
2017-05-05T23:25:32.359Z,27.24
2017-05-05T23:28:02.367Z,27.74
2017-05-05T23:30:32.105Z,27.73
2017-05-05T23:33:02.438Z,29.68
2017-05-05T23:35:32.407Z,27.10
2017-05-05T23:38:01.938Z,29.10
2017-05-05T23:40:31.720Z,25.72
2017-05-05T23:43:01.338Z,25.68
2017-05-05T23:45:31.469Z,25.26
2017-05-05T23:48:01.815Z,26.60
2017-05-05T23:53:05.556Z,28.84
2017-05-05T23:55:35.677Z,28.33
2017-05-05T23:58:05.852Z,24.54
